Terminal Aerodrome Forecast
Issued by NWS

Home | Current Version | Previous Version | Text Only | Print | Product List | Glossary On
Versions: 1 2 3 4 5 6 7 8 9 10 11 12 13 14 15 16 17 18 19 20 21 22 23
562
FTUS43 KILX 300829 AAB
TAFBMI
TAF AMD
KBMI 300829Z 3008/3106 09015G23KT P6SM -SHRA VCTS OVC025CB
      TEMPO 3008/3012 3SM -TSRA BR OVC015CB
     FM301200 09012KT P6SM VCSH OVC010
     FM301800 15010KT P6SM VCTS OVC015CB
     FM310100 VRB06KT 3SM BR VCSH OVC008=

USA.gov is the U.S. government's official web portal to all federal, state and local government web resources and services.